sensor_id;sensor_type;location;lat;lon;timestamp;P1;durP1;ratioP1;P2;durP2;ratioP2
20287;SDS011;10303;51.960;8.372;2024-02-21T00:01:05;13.17;;;7.03;;
20287;SDS011;10303;51.960;8.372;2024-02-21T00:03:31;12.70;;;7.27;;
20287;SDS011;10303;51.960;8.372;2024-02-21T00:05:57;16.13;;;7.07;;
20287;SDS011;10303;51.960;8.372;2024-02-21T00:08:23;15.53;;;7.77;;
20287;SDS011;10303;51.960;8.372;2024-02-21T00:10:49;18.00;;;8.80;;
20287;SDS011;10303;51.960;8.372;2024-02-21T00:13:15;11.30;;;7.17;;
20287;SDS011;10303;51.960;8.372;2024-02-21T00:15:41;14.63;;;7.47;;
20287;SDS011;10303;51.960;8.372;2024-02-21T00:18:07;13.87;;;7.73;;
20287;SDS011;10303;51.960;8.372;2024-02-21T00:20:33;18.33;;;8.20;;
20287;SDS011;10303;51.960;8.372;2024-02-21T00:22:59;17.53;;;7.67;;
20287;SDS011;10303;51.960;8.372;2024-02-21T00:25:24;17.23;;;8.13;;
20287;SDS011;10303;51.960;8.372;2024-02-21T00:27:50;15.33;;;6.73;;
20287;SDS011;10303;51.960;8.372;2024-02-21T00:30:16;13.87;;;7.40;;
20287;SDS011;10303;51.960;8.372;2024-02-21T00:32:42;13.17;;;7.63;;
20287;SDS011;10303;51.960;8.372;2024-02-21T00:35:08;14.50;;;8.40;;
20287;SDS011;10303;51.960;8.372;2024-02-21T00:37:34;12.30;;;6.90;;
20287;SDS011;10303;51.960;8.372;2024-02-21T00:40:00;16.97;;;6.83;;
20287;SDS011;10303;51.960;8.372;2024-02-21T00:42:25;10.80;;;6.43;;
20287;SDS011;10303;51.960;8.372;2024-02-21T00:44:51;9.77;;;6.40;;
20287;SDS011;10303;51.960;8.372;2024-02-21T00:47:17;17.60;;;7.17;;
20287;SDS011;10303;51.960;8.372;2024-02-21T00:49:43;15.53;;;7.60;;
20287;SDS011;10303;51.960;8.372;2024-02-21T00:52:09;17.73;;;8.67;;
20287;SDS011;10303;51.960;8.372;2024-02-21T00:54:35;10.80;;;6.60;;
20287;SDS011;10303;51.960;8.372;2024-02-21T00:57:00;20.47;;;9.30;;
20287;SDS011;10303;51.960;8.372;2024-02-21T00:59:26;13.10;;;6.47;;
20287;SDS011;10303;51.960;8.372;2024-02-21T01:01:52;13.97;;;6.60;;
20287;SDS011;10303;51.960;8.372;2024-02-21T01:04:18;10.43;;;7.00;;
20287;SDS011;10303;51.960;8.372;2024-02-21T01:06:44;12.37;;;6.83;;
20287;SDS011;10303;51.960;8.372;2024-02-21T01:09:13;12.33;;;6.50;;
20287;SDS011;10303;51.960;8.372;2024-02-21T01:11:39;14.17;;;6.73;;
20287;SDS011;10303;51.960;8.372;2024-02-21T01:14:05;15.30;;;7.20;;
20287;SDS011;10303;51.960;8.372;2024-02-21T01:16:31;14.90;;;7.57;;
20287;SDS011;10303;51.960;8.372;2024-02-21T01:18:57;18.03;;;6.80;;
20287;SDS011;10303;51.960;8.372;2024-02-21T01:21:22;14.33;;;7.07;;
20287;SDS011;10303;51.960;8.372;2024-02-21T01:23:48;10.40;;;6.60;;
20287;SDS011;10303;51.960;8.372;2024-02-21T01:26:14;16.10;;;7.30;;
20287;SDS011;10303;51.960;8.372;2024-02-21T01:28:40;13.00;;;6.87;;
20287;SDS011;10303;51.960;8.372;2024-02-21T01:31:07;17.30;;;7.67;;
20287;SDS011;10303;51.960;8.372;2024-02-21T01:33:33;14.67;;;7.23;;
20287;SDS011;10303;51.960;8.372;2024-02-21T01:36:04;16.00;;;7.40;;
20287;SDS011;10303;51.960;8.372;2024-02-21T01:38:34;17.40;;;7.67;;
20287;SDS011;10303;51.960;8.372;2024-02-21T01:41:00;9.50;;;6.43;;
20287;SDS011;10303;51.960;8.372;2024-02-21T01:43:26;14.33;;;7.47;;
20287;SDS011;10303;51.960;8.372;2024-02-21T01:45:52;19.97;;;8.17;;
20287;SDS011;10303;51.960;8.372;2024-02-21T01:48:22;17.27;;;7.60;;
20287;SDS011;10303;51.960;8.372;2024-02-21T01:50:48;17.47;;;7.57;;
20287;SDS011;10303;51.960;8.372;2024-02-21T01:53:16;12.20;;;6.77;;
20287;SDS011;10303;51.960;8.372;2024-02-21T01:55:47;9.67;;;6.20;;
20287;SDS011;10303;51.960;8.372;2024-02-21T01:58:14;8.83;;;6.50;;
20287;SDS011;10303;51.960;8.372;2024-02-21T02:00:44;19.27;;;8.27;;
20287;SDS011;10303;51.960;8.372;2024-02-21T02:03:12;17.57;;;8.00;;
20287;SDS011;10303;51.960;8.372;2024-02-21T02:05:43;12.00;;;6.40;;
20287;SDS011;10303;51.960;8.372;2024-02-21T02:08:11;11.50;;;6.60;;
20287;SDS011;10303;51.960;8.372;2024-02-21T02:10:39;14.17;;;7.40;;
20287;SDS011;10303;51.960;8.372;2024-02-21T02:13:06;15.07;;;8.00;;
20287;SDS011;10303;51.960;8.372;2024-02-21T02:15:46;16.03;;;8.33;;
20287;SDS011;10303;51.960;8.372;2024-02-21T02:18:14;15.33;;;7.57;;
20287;SDS011;10303;51.960;8.372;2024-02-21T02:20:42;17.03;;;8.53;;
20287;SDS011;10303;51.960;8.372;2024-02-21T02:23:11;12.43;;;7.07;;
20287;SDS011;10303;51.960;8.372;2024-02-21T02:25:47;12.27;;;6.67;;
20287;SDS011;10303;51.960;8.372;2024-02-21T02:28:14;14.10;;;8.07;;
20287;SDS011;10303;51.960;8.372;2024-02-21T02:30:40;13.10;;;6.87;;
20287;SDS011;10303;51.960;8.372;2024-02-21T02:33:06;10.50;;;6.63;;
20287;SDS011;10303;51.960;8.372;2024-02-21T02:35:32;19.77;;;8.20;;
20287;SDS011;10303;51.960;8.372;2024-02-21T02:38:00;15.43;;;8.77;;
20287;SDS011;10303;51.960;8.372;2024-02-21T02:40:26;13.23;;;6.93;;
20287;SDS011;10303;51.960;8.372;2024-02-21T02:42:52;13.67;;;7.60;;
20287;SDS011;10303;51.960;8.372;2024-02-21T02:45:20;14.37;;;7.47;;
20287;SDS011;10303;51.960;8.372;2024-02-21T02:47:48;17.80;;;7.93;;
20287;SDS011;10303;51.960;8.372;2024-02-21T02:50:14;18.50;;;7.17;;
20287;SDS011;10303;51.960;8.372;2024-02-21T02:52:40;17.27;;;8.13;;
20287;SDS011;10303;51.960;8.372;2024-02-21T02:55:06;9.73;;;6.63;;
20287;SDS011;10303;51.960;8.372;2024-02-21T02:57:32;15.60;;;6.50;;
20287;SDS011;10303;51.960;8.372;2024-02-21T02:59:58;11.33;;;7.03;;
20287;SDS011;10303;51.960;8.372;2024-02-21T03:02:24;12.57;;;6.77;;
20287;SDS011;10303;51.960;8.372;2024-02-21T03:04:50;16.50;;;7.83;;
20287;SDS011;10303;51.960;8.372;2024-02-21T03:07:16;11.93;;;6.40;;
20287;SDS011;10303;51.960;8.372;2024-02-21T03:09:42;11.50;;;7.00;;
20287;SDS011;10303;51.960;8.372;2024-02-21T03:12:08;10.93;;;6.17;;
20287;SDS011;10303;51.960;8.372;2024-02-21T03:14:34;9.53;;;6.47;;
20287;SDS011;10303;51.960;8.372;2024-02-21T03:17:01;13.50;;;7.50;;
20287;SDS011;10303;51.960;8.372;2024-02-21T03:19:28;11.33;;;6.20;;
20287;SDS011;10303;51.960;8.372;2024-02-21T03:21:54;12.40;;;6.17;;
20287;SDS011;10303;51.960;8.372;2024-02-21T03:24:20;11.40;;;6.20;;
20287;SDS011;10303;51.960;8.372;2024-02-21T03:26:47;9.47;;;6.10;;
20287;SDS011;10303;51.960;8.372;2024-02-21T03:29:15;12.50;;;6.80;;
20287;SDS011;10303;51.960;8.372;2024-02-21T03:31:42;10.07;;;6.20;;
20287;SDS011;10303;51.960;8.372;2024-02-21T03:34:10;18.17;;;7.13;;
20287;SDS011;10303;51.960;8.372;2024-02-21T03:36:36;13.67;;;6.27;;
20287;SDS011;10303;51.960;8.372;2024-02-21T03:39:02;10.70;;;6.27;;
20287;SDS011;10303;51.960;8.372;2024-02-21T03:41:28;12.93;;;5.90;;
20287;SDS011;10303;51.960;8.372;2024-02-21T03:43:54;12.13;;;5.83;;
20287;SDS011;10303;51.960;8.372;2024-02-21T03:46:20;13.03;;;6.97;;
20287;SDS011;10303;51.960;8.372;2024-02-21T03:48:46;13.43;;;7.03;;
20287;SDS011;10303;51.960;8.372;2024-02-21T03:51:12;16.77;;;6.33;;
20287;SDS011;10303;51.960;8.372;2024-02-21T03:53:40;12.83;;;6.27;;
20287;SDS011;10303;51.960;8.372;2024-02-21T03:56:06;10.50;;;6.33;;
20287;SDS011;10303;51.960;8.372;2024-02-21T03:58:32;16.63;;;6.87;;
20287;SDS011;10303;51.960;8.372;2024-02-21T04:01:01;16.67;;;7.33;;
20287;SDS011;10303;51.960;8.372;2024-02-21T04:03:28;12.60;;;5.97;;
20287;SDS011;10303;51.960;8.372;2024-02-21T04:05:55;13.27;;;7.87;;
20287;SDS011;10303;51.960;8.372;2024-02-21T04:08:23;21.77;;;7.13;;
20287;SDS011;10303;51.960;8.372;2024-02-21T04:10:49;16.37;;;7.53;;
20287;SDS011;10303;51.960;8.372;2024-02-21T04:13:15;17.60;;;7.47;;
20287;SDS011;10303;51.960;8.372;2024-02-21T04:15:41;13.97;;;6.30;;
20287;SDS011;10303;51.960;8.372;2024-02-21T04:18:07;13.27;;;6.93;;
20287;SDS011;10303;51.960;8.372;2024-02-21T04:20:33;10.73;;;6.33;;
20287;SDS011;10303;51.960;8.372;2024-02-21T04:23:00;14.50;;;6.20;;
20287;SDS011;10303;51.960;8.372;2024-02-21T04:25:26;12.43;;;6.00;;
20287;SDS011;10303;51.960;8.372;2024-02-21T04:27:52;11.83;;;6.87;;
20287;SDS011;10303;51.960;8.372;2024-02-21T04:30:18;12.87;;;7.00;;
20287;SDS011;10303;51.960;8.372;2024-02-21T04:32:44;9.87;;;5.87;;
20287;SDS011;10303;51.960;8.372;2024-02-21T04:35:10;13.43;;;6.50;;
20287;SDS011;10303;51.960;8.372;2024-02-21T04:37:36;12.93;;;6.60;;
20287;SDS011;10303;51.960;8.372;2024-02-21T04:40:01;14.60;;;6.90;;
20287;SDS011;10303;51.960;8.372;2024-02-21T04:42:28;7.90;;;4.83;;
20287;SDS011;10303;51.960;8.372;2024-02-21T04:44:53;6.77;;;5.17;;
20287;SDS011;10303;51.960;8.372;2024-02-21T04:47:19;12.47;;;6.07;;
20287;SDS011;10303;51.960;8.372;2024-02-21T04:49:45;8.23;;;5.70;;
20287;SDS011;10303;51.960;8.372;2024-02-21T04:52:12;14.43;;;6.97;;
20287;SDS011;10303;51.960;8.372;2024-02-21T04:54:37;13.37;;;6.47;;
20287;SDS011;10303;51.960;8.372;2024-02-21T04:57:04;10.53;;;5.30;;
20287;SDS011;10303;51.960;8.372;2024-02-21T04:59:30;15.73;;;5.93;;
20287;SDS011;10303;51.960;8.372;2024-02-21T05:01:56;13.23;;;6.40;;
20287;SDS011;10303;51.960;8.372;2024-02-21T05:04:22;7.40;;;5.47;;
20287;SDS011;10303;51.960;8.372;2024-02-21T05:06:48;13.43;;;5.87;;
20287;SDS011;10303;51.960;8.372;2024-02-21T05:09:13;12.50;;;6.17;;
20287;SDS011;10303;51.960;8.372;2024-02-21T05:11:39;11.47;;;6.77;;
20287;SDS011;10303;51.960;8.372;2024-02-21T05:14:05;18.33;;;7.70;;
20287;SDS011;10303;51.960;8.372;2024-02-21T05:16:32;17.90;;;7.10;;
20287;SDS011;10303;51.960;8.372;2024-02-21T05:18:58;9.73;;;5.90;;
20287;SDS011;10303;51.960;8.372;2024-02-21T05:21:24;14.90;;;6.43;;
20287;SDS011;10303;51.960;8.372;2024-02-21T05:23:50;10.63;;;6.70;;
20287;SDS011;10303;51.960;8.372;2024-02-21T05:26:20;12.40;;;5.83;;
20287;SDS011;10303;51.960;8.372;2024-02-21T05:28:54;12.83;;;6.57;;
20287;SDS011;10303;51.960;8.372;2024-02-21T05:31:20;16.60;;;7.00;;
20287;SDS011;10303;51.960;8.372;2024-02-21T05:33:47;10.50;;;6.07;;
20287;SDS011;10303;51.960;8.372;2024-02-21T05:36:15;13.87;;;6.47;;
20287;SDS011;10303;51.960;8.372;2024-02-21T05:38:41;15.83;;;7.07;;
20287;SDS011;10303;51.960;8.372;2024-02-21T05:41:07;10.70;;;7.07;;
20287;SDS011;10303;51.960;8.372;2024-02-21T05:43:33;11.30;;;7.03;;
20287;SDS011;10303;51.960;8.372;2024-02-21T05:45:59;14.40;;;7.20;;
20287;SDS011;10303;51.960;8.372;2024-02-21T05:48:25;11.20;;;7.40;;
20287;SDS011;10303;51.960;8.372;2024-02-21T05:50:51;15.03;;;7.90;;
20287;SDS011;10303;51.960;8.372;2024-02-21T05:53:16;15.13;;;7.13;;
20287;SDS011;10303;51.960;8.372;2024-02-21T05:55:43;15.87;;;6.87;;
20287;SDS011;10303;51.960;8.372;2024-02-21T05:58:09;13.23;;;7.67;;
20287;SDS011;10303;51.960;8.372;2024-02-21T06:00:39;12.93;;;6.50;;
20287;SDS011;10303;51.960;8.372;2024-02-21T06:03:05;12.30;;;8.10;;
20287;SDS011;10303;51.960;8.372;2024-02-21T06:05:36;11.83;;;6.27;;
20287;SDS011;10303;51.960;8.372;2024-02-21T06:08:03;17.03;;;7.30;;
20287;SDS011;10303;51.960;8.372;2024-02-21T06:10:30;11.50;;;6.67;;
20287;SDS011;10303;51.960;8.372;2024-02-21T06:12:56;14.57;;;7.00;;
20287;SDS011;10303;51.960;8.372;2024-02-21T06:15:22;17.57;;;6.50;;
20287;SDS011;10303;51.960;8.372;2024-02-21T06:17:47;11.07;;;5.57;;
20287;SDS011;10303;51.960;8.372;2024-02-21T06:20:15;13.33;;;7.03;;
20287;SDS011;10303;51.960;8.372;2024-02-21T06:22:41;11.60;;;5.97;;
20287;SDS011;10303;51.960;8.372;2024-02-21T06:25:07;12.50;;;5.87;;
20287;SDS011;10303;51.960;8.372;2024-02-21T06:27:34;11.33;;;6.60;;
20287;SDS011;10303;51.960;8.372;2024-02-21T06:30:00;10.63;;;6.60;;
20287;SDS011;10303;51.960;8.372;2024-02-21T06:32:25;11.60;;;6.20;;
20287;SDS011;10303;51.960;8.372;2024-02-21T06:34:51;10.47;;;6.00;;
20287;SDS011;10303;51.960;8.372;2024-02-21T06:37:17;11.20;;;5.53;;
20287;SDS011;10303;51.960;8.372;2024-02-21T06:39:43;15.93;;;5.87;;
20287;SDS011;10303;51.960;8.372;2024-02-21T06:42:09;8.93;;;4.90;;
20287;SDS011;10303;51.960;8.372;2024-02-21T06:44:35;9.73;;;5.57;;
20287;SDS011;10303;51.960;8.372;2024-02-21T06:47:05;10.13;;;4.93;;
20287;SDS011;10303;51.960;8.372;2024-02-21T06:49:32;10.73;;;5.07;;
20287;SDS011;10303;51.960;8.372;2024-02-21T06:51:58;11.23;;;4.47;;
20287;SDS011;10303;51.960;8.372;2024-02-21T06:54:25;8.30;;;5.23;;
20287;SDS011;10303;51.960;8.372;2024-02-21T06:56:50;7.13;;;4.70;;
20287;SDS011;10303;51.960;8.372;2024-02-21T06:59:16;6.90;;;4.60;;
20287;SDS011;10303;51.960;8.372;2024-02-21T07:01:46;6.57;;;4.10;;
20287;SDS011;10303;51.960;8.372;2024-02-21T07:04:13;9.27;;;4.97;;
20287;SDS011;10303;51.960;8.372;2024-02-21T07:06:40;11.60;;;4.57;;
20287;SDS011;10303;51.960;8.372;2024-02-21T07:09:05;6.50;;;3.57;;
20287;SDS011;10303;51.960;8.372;2024-02-21T07:11:31;5.93;;;4.37;;
20287;SDS011;10303;51.960;8.372;2024-02-21T07:13:57;10.03;;;4.43;;
20287;SDS011;10303;51.960;8.372;2024-02-21T07:16:23;10.50;;;4.37;;
20287;SDS011;10303;51.960;8.372;2024-02-21T07:18:49;7.17;;;4.43;;
20287;SDS011;10303;51.960;8.372;2024-02-21T07:21:15;8.93;;;5.07;;
20287;SDS011;10303;51.960;8.372;2024-02-21T07:23:41;6.73;;;3.00;;
20287;SDS011;10303;51.960;8.372;2024-02-21T07:26:07;8.87;;;4.20;;
20287;SDS011;10303;51.960;8.372;2024-02-21T07:28:33;4.07;;;3.07;;
20287;SDS011;10303;51.960;8.372;2024-02-21T07:30:59;7.60;;;4.03;;
20287;SDS011;10303;51.960;8.372;2024-02-21T07:33:25;4.93;;;3.73;;
20287;SDS011;10303;51.960;8.372;2024-02-21T07:35:51;4.83;;;4.00;;
20287;SDS011;10303;51.960;8.372;2024-02-21T07:38:17;6.33;;;3.53;;
20287;SDS011;10303;51.960;8.372;2024-02-21T07:40:46;5.93;;;3.43;;
20287;SDS011;10303;51.960;8.372;2024-02-21T07:43:12;5.10;;;2.93;;
20287;SDS011;10303;51.960;8.372;2024-02-21T07:45:38;6.87;;;2.87;;
20287;SDS011;10303;51.960;8.372;2024-02-21T07:48:05;3.97;;;2.67;;
20287;SDS011;10303;51.960;8.372;2024-02-21T07:50:31;5.30;;;2.97;;
20287;SDS011;10303;51.960;8.372;2024-02-21T07:52:57;7.80;;;3.73;;
20287;SDS011;10303;51.960;8.372;2024-02-21T07:55:23;6.50;;;3.27;;
20287;SDS011;10303;51.960;8.372;2024-02-21T07:57:49;5.13;;;3.37;;
20287;SDS011;10303;51.960;8.372;2024-02-21T08:00:15;2.80;;;2.50;;
20287;SDS011;10303;51.960;8.372;2024-02-21T08:02:47;3.50;;;3.13;;
20287;SDS011;10303;51.960;8.372;2024-02-21T08:05:14;8.53;;;3.23;;
20287;SDS011;10303;51.960;8.372;2024-02-21T08:07:40;5.07;;;3.53;;
20287;SDS011;10303;51.960;8.372;2024-02-21T08:10:06;4.87;;;3.00;;
20287;SDS011;10303;51.960;8.372;2024-02-21T08:12:33;3.33;;;3.00;;
20287;SDS011;10303;51.960;8.372;2024-02-21T08:14:59;5.53;;;2.77;;
20287;SDS011;10303;51.960;8.372;2024-02-21T08:17:26;8.27;;;2.70;;
20287;SDS011;10303;51.960;8.372;2024-02-21T08:19:52;6.80;;;3.90;;
20287;SDS011;10303;51.960;8.372;2024-02-21T08:22:17;4.83;;;2.67;;
20287;SDS011;10303;51.960;8.372;2024-02-21T08:24:43;11.23;;;4.00;;
20287;SDS011;10303;51.960;8.372;2024-02-21T08:27:09;5.80;;;3.13;;
20287;SDS011;10303;51.960;8.372;2024-02-21T08:29:35;4.63;;;2.73;;
20287;SDS011;10303;51.960;8.372;2024-02-21T08:32:01;5.20;;;3.50;;
20287;SDS011;10303;51.960;8.372;2024-02-21T08:34:27;5.57;;;3.43;;
20287;SDS011;10303;51.960;8.372;2024-02-21T08:36:55;4.83;;;3.07;;
20287;SDS011;10303;51.960;8.372;2024-02-21T08:39:21;9.83;;;3.87;;
20287;SDS011;10303;51.960;8.372;2024-02-21T08:41:47;4.23;;;3.23;;
20287;SDS011;10303;51.960;8.372;2024-02-21T08:44:13;9.10;;;3.60;;
20287;SDS011;10303;51.960;8.372;2024-02-21T08:46:39;3.03;;;2.30;;
20287;SDS011;10303;51.960;8.372;2024-02-21T08:49:05;7.07;;;3.47;;
20287;SDS011;10303;51.960;8.372;2024-02-21T08:51:32;4.70;;;2.80;;
20287;SDS011;10303;51.960;8.372;2024-02-21T08:53:57;9.93;;;2.40;;
20287;SDS011;10303;51.960;8.372;2024-02-21T08:56:25;5.90;;;3.23;;
20287;SDS011;10303;51.960;8.372;2024-02-21T08:58:51;4.73;;;2.97;;
20287;SDS011;10303;51.960;8.372;2024-02-21T09:01:16;5.70;;;3.20;;
20287;SDS011;10303;51.960;8.372;2024-02-21T09:03:42;3.87;;;2.60;;
20287;SDS011;10303;51.960;8.372;2024-02-21T09:06:09;3.13;;;2.83;;
20287;SDS011;10303;51.960;8.372;2024-02-21T09:08:38;3.87;;;2.27;;
20287;SDS011;10303;51.960;8.372;2024-02-21T09:11:05;2.87;;;2.40;;
20287;SDS011;10303;51.960;8.372;2024-02-21T09:13:32;4.93;;;2.03;;
20287;SDS011;10303;51.960;8.372;2024-02-21T09:15:57;3.23;;;1.80;;
20287;SDS011;10303;51.960;8.372;2024-02-21T09:18:23;5.07;;;2.17;;
20287;SDS011;10303;51.960;8.372;2024-02-21T09:20:49;3.33;;;2.07;;
20287;SDS011;10303;51.960;8.372;2024-02-21T09:23:15;3.77;;;2.60;;
20287;SDS011;10303;51.960;8.372;2024-02-21T09:25:41;4.70;;;2.17;;
20287;SDS011;10303;51.960;8.372;2024-02-21T09:28:07;2.93;;;2.00;;
20287;SDS011;10303;51.960;8.372;2024-02-21T09:30:33;3.27;;;2.77;;
20287;SDS011;10303;51.960;8.372;2024-02-21T09:32:59;3.77;;;2.47;;
20287;SDS011;10303;51.960;8.372;2024-02-21T09:35:26;4.40;;;1.97;;
20287;SDS011;10303;51.960;8.372;2024-02-21T09:37:53;5.37;;;2.73;;
20287;SDS011;10303;51.960;8.372;2024-02-21T09:40:20;8.63;;;3.10;;
20287;SDS011;10303;51.960;8.372;2024-02-21T09:42:47;4.07;;;2.17;;
20287;SDS011;10303;51.960;8.372;2024-02-21T09:50:40;5.03;;;2.73;;
20287;SDS011;10303;51.960;8.372;2024-02-21T09:53:06;4.63;;;2.70;;
20287;SDS011;10303;51.960;8.372;2024-02-21T09:55:33;4.37;;;2.53;;
20287;SDS011;10303;51.960;8.372;2024-02-21T09:58:03;5.50;;;2.70;;
20287;SDS011;10303;51.960;8.372;2024-02-21T10:00:30;3.10;;;2.40;;
20287;SDS011;10303;51.960;8.372;2024-02-21T10:02:56;6.00;;;3.10;;
20287;SDS011;10303;51.960;8.372;2024-02-21T10:05:23;6.03;;;3.57;;
20287;SDS011;10303;51.960;8.372;2024-02-21T10:07:50;7.83;;;3.07;;
20287;SDS011;10303;51.960;8.372;2024-02-21T10:10:17;7.40;;;2.90;;
20287;SDS011;10303;51.960;8.372;2024-02-21T10:12:50;5.50;;;2.60;;
20287;SDS011;10303;51.960;8.372;2024-02-21T10:15:24;4.70;;;3.03;;
20287;SDS011;10303;51.960;8.372;2024-02-21T10:17:57;3.83;;;2.43;;
20287;SDS011;10303;51.960;8.372;2024-02-21T10:20:26;2.20;;;2.00;;
20287;SDS011;10303;51.960;8.372;2024-02-21T10:25:38;4.10;;;3.10;;
20287;SDS011;10303;51.960;8.372;2024-02-21T10:28:07;8.30;;;3.80;;
20287;SDS011;10303;51.960;8.372;2024-02-21T10:30:32;4.80;;;3.20;;
20287;SDS011;10303;51.960;8.372;2024-02-21T10:32:59;4.13;;;2.57;;
20287;SDS011;10303;51.960;8.372;2024-02-21T10:35:25;5.27;;;2.70;;
20287;SDS011;10303;51.960;8.372;2024-02-21T10:37:56;6.73;;;3.27;;
20287;SDS011;10303;51.960;8.372;2024-02-21T10:40:23;6.60;;;3.53;;
20287;SDS011;10303;51.960;8.372;2024-02-21T10:42:59;5.57;;;2.97;;
20287;SDS011;10303;51.960;8.372;2024-02-21T10:45:35;5.93;;;3.53;;
20287;SDS011;10303;51.960;8.372;2024-02-21T10:53:44;7.57;;;3.67;;
20287;SDS011;10303;51.960;8.372;2024-02-21T10:58:56;4.70;;;3.07;;
20287;SDS011;10303;51.960;8.372;2024-02-21T11:01:25;4.00;;;3.17;;
20287;SDS011;10303;51.960;8.372;2024-02-21T11:03:55;6.03;;;3.60;;
20287;SDS011;10303;51.960;8.372;2024-02-21T11:06:23;7.73;;;4.20;;
20287;SDS011;10303;51.960;8.372;2024-02-21T11:09:06;5.83;;;3.57;;
20287;SDS011;10303;51.960;8.372;2024-02-21T11:11:40;10.70;;;4.50;;
20287;SDS011;10303;51.960;8.372;2024-02-21T11:14:10;12.43;;;3.87;;
20287;SDS011;10303;51.960;8.372;2024-02-21T11:16:43;7.63;;;3.70;;
20287;SDS011;10303;51.960;8.372;2024-02-21T11:19:18;4.77;;;3.50;;
20287;SDS011;10303;51.960;8.372;2024-02-21T11:21:50;7.33;;;4.27;;
20287;SDS011;10303;51.960;8.372;2024-02-21T11:24:30;5.80;;;3.63;;
20287;SDS011;10303;51.960;8.372;2024-02-21T11:27:19;5.30;;;4.33;;
20287;SDS011;10303;51.960;8.372;2024-02-21T11:29:56;6.83;;;4.03;;
20287;SDS011;10303;51.960;8.372;2024-02-21T11:32:23;6.63;;;4.00;;
20287;SDS011;10303;51.960;8.372;2024-02-21T11:34:55;10.47;;;4.97;;
20287;SDS011;10303;51.960;8.372;2024-02-21T11:37:29;6.37;;;3.83;;
20287;SDS011;10303;51.960;8.372;2024-02-21T11:40:08;9.20;;;3.97;;
20287;SDS011;10303;51.960;8.372;2024-02-21T11:42:35;8.53;;;3.77;;
20287;SDS011;10303;51.960;8.372;2024-02-21T11:45:01;3.60;;;3.30;;
20287;SDS011;10303;51.960;8.372;2024-02-21T11:47:30;5.13;;;3.10;;
20287;SDS011;10303;51.960;8.372;2024-02-21T11:49:56;3.63;;;3.30;;
20287;SDS011;10303;51.960;8.372;2024-02-21T11:52:22;4.80;;;2.73;;
20287;SDS011;10303;51.960;8.372;2024-02-21T11:54:52;3.10;;;2.80;;
20287;SDS011;10303;51.960;8.372;2024-02-21T11:57:22;4.97;;;3.80;;
20287;SDS011;10303;51.960;8.372;2024-02-21T11:59:48;4.60;;;3.10;;
20287;SDS011;10303;51.960;8.372;2024-02-21T12:02:15;3.40;;;2.93;;
20287;SDS011;10303;51.960;8.372;2024-02-21T12:04:42;4.77;;;3.43;;
20287;SDS011;10303;51.960;8.372;2024-02-21T12:07:09;5.03;;;3.40;;
20287;SDS011;10303;51.960;8.372;2024-02-21T12:09:35;4.00;;;3.17;;
20287;SDS011;10303;51.960;8.372;2024-02-21T12:12:02;6.20;;;2.97;;
20287;SDS011;10303;51.960;8.372;2024-02-21T12:14:31;4.53;;;3.07;;
20287;SDS011;10303;51.960;8.372;2024-02-21T12:16:59;6.37;;;3.03;;
20287;SDS011;10303;51.960;8.372;2024-02-21T12:19:28;3.60;;;3.27;;
20287;SDS011;10303;51.960;8.372;2024-02-21T12:21:56;7.07;;;4.03;;
20287;SDS011;10303;51.960;8.372;2024-02-21T12:24:25;8.30;;;4.57;;
20287;SDS011;10303;51.960;8.372;2024-02-21T12:26:53;8.83;;;4.43;;
20287;SDS011;10303;51.960;8.372;2024-02-21T12:29:25;11.73;;;4.00;;
20287;SDS011;10303;51.960;8.372;2024-02-21T12:31:51;10.30;;;5.23;;
20287;SDS011;10303;51.960;8.372;2024-02-21T12:34:19;10.77;;;5.40;;
20287;SDS011;10303;51.960;8.372;2024-02-21T12:36:45;12.63;;;4.87;;
20287;SDS011;10303;51.960;8.372;2024-02-21T12:39:14;9.67;;;4.43;;
20287;SDS011;10303;51.960;8.372;2024-02-21T12:41:40;6.17;;;3.33;;
20287;SDS011;10303;51.960;8.372;2024-02-21T12:44:09;4.90;;;3.27;;
20287;SDS011;10303;51.960;8.372;2024-02-21T12:46:38;8.57;;;3.33;;
20287;SDS011;10303;51.960;8.372;2024-02-21T12:49:07;3.97;;;3.33;;
20287;SDS011;10303;51.960;8.372;2024-02-21T12:51:34;5.83;;;3.20;;
20287;SDS011;10303;51.960;8.372;2024-02-21T12:54:01;12.80;;;3.87;;
20287;SDS011;10303;51.960;8.372;2024-02-21T12:56:29;4.23;;;3.10;;
20287;SDS011;10303;51.960;8.372;2024-02-21T12:58:56;5.03;;;2.77;;
20287;SDS011;10303;51.960;8.372;2024-02-21T13:01:23;4.07;;;3.13;;
20287;SDS011;10303;51.960;8.372;2024-02-21T13:03:49;6.03;;;3.10;;
20287;SDS011;10303;51.960;8.372;2024-02-21T13:06:15;7.83;;;3.50;;
20287;SDS011;10303;51.960;8.372;2024-02-21T13:08:40;6.03;;;3.77;;
20287;SDS011;10303;51.960;8.372;2024-02-21T13:11:06;7.63;;;3.67;;
20287;SDS011;10303;51.960;8.372;2024-02-21T13:13:32;7.10;;;3.23;;
20287;SDS011;10303;51.960;8.372;2024-02-21T13:15:58;5.90;;;3.50;;
20287;SDS011;10303;51.960;8.372;2024-02-21T13:18:24;4.30;;;3.00;;
20287;SDS011;10303;51.960;8.372;2024-02-21T13:20:51;4.20;;;2.73;;
20287;SDS011;10303;51.960;8.372;2024-02-21T13:23:16;3.63;;;2.97;;
20287;SDS011;10303;51.960;8.372;2024-02-21T13:25:42;4.50;;;2.97;;
20287;SDS011;10303;51.960;8.372;2024-02-21T13:28:12;3.90;;;3.07;;
20287;SDS011;10303;51.960;8.372;2024-02-21T13:30:38;7.23;;;3.27;;
20287;SDS011;10303;51.960;8.372;2024-02-21T13:33:05;2.93;;;2.37;;
20287;SDS011;10303;51.960;8.372;2024-02-21T13:35:32;2.60;;;2.40;;
20287;SDS011;10303;51.960;8.372;2024-02-21T13:37:58;2.13;;;1.70;;
20287;SDS011;10303;51.960;8.372;2024-02-21T13:40:24;4.80;;;2.50;;
20287;SDS011;10303;51.960;8.372;2024-02-21T13:42:50;2.43;;;1.73;;
20287;SDS011;10303;51.960;8.372;2024-02-21T13:45:16;5.20;;;2.10;;
20287;SDS011;10303;51.960;8.372;2024-02-21T13:47:42;10.73;;;1.97;;
20287;SDS011;10303;51.960;8.372;2024-02-21T13:50:08;2.40;;;1.50;;
20287;SDS011;10303;51.960;8.372;2024-02-21T13:52:39;3.03;;;1.67;;
20287;SDS011;10303;51.960;8.372;2024-02-21T13:55:06;4.93;;;1.77;;
20287;SDS011;10303;51.960;8.372;2024-02-21T13:57:38;3.30;;;1.60;;
20287;SDS011;10303;51.960;8.372;2024-02-21T14:00:04;3.13;;;1.73;;
20287;SDS011;10303;51.960;8.372;2024-02-21T14:02:37;6.17;;;2.30;;
20287;SDS011;10303;51.960;8.372;2024-02-21T14:05:04;3.27;;;1.93;;
20287;SDS011;10303;51.960;8.372;2024-02-21T14:07:31;5.03;;;1.80;;
20287;SDS011;10303;51.960;8.372;2024-02-21T14:10:00;2.67;;;1.77;;
20287;SDS011;10303;51.960;8.372;2024-02-21T14:12:26;2.07;;;1.57;;
20287;SDS011;10303;51.960;8.372;2024-02-21T14:14:52;3.83;;;1.90;;
20287;SDS011;10303;51.960;8.372;2024-02-21T14:17:18;2.03;;;1.60;;
20287;SDS011;10303;51.960;8.372;2024-02-21T14:19:45;3.53;;;1.63;;
20287;SDS011;10303;51.960;8.372;2024-02-21T14:22:11;2.43;;;1.90;;
20287;SDS011;10303;51.960;8.372;2024-02-21T14:24:37;1.80;;;1.70;;
20287;SDS011;10303;51.960;8.372;2024-02-21T14:27:03;1.97;;;1.70;;
20287;SDS011;10303;51.960;8.372;2024-02-21T14:29:29;2.70;;;1.30;;
20287;SDS011;10303;51.960;8.372;2024-02-21T14:31:55;3.43;;;1.93;;
20287;SDS011;10303;51.960;8.372;2024-02-21T14:34:21;2.70;;;1.20;;
20287;SDS011;10303;51.960;8.372;2024-02-21T14:36:47;2.13;;;1.43;;
20287;SDS011;10303;51.960;8.372;2024-02-21T14:39:13;2.77;;;1.30;;
20287;SDS011;10303;51.960;8.372;2024-02-21T14:41:39;1.97;;;1.10;;
20287;SDS011;10303;51.960;8.372;2024-02-21T14:44:05;3.33;;;1.80;;
20287;SDS011;10303;51.960;8.372;2024-02-21T14:46:31;1.97;;;1.60;;
20287;SDS011;10303;51.960;8.372;2024-02-21T14:48:58;2.17;;;1.87;;
20287;SDS011;10303;51.960;8.372;2024-02-21T14:51:23;2.57;;;1.93;;
20287;SDS011;10303;51.960;8.372;2024-02-21T14:53:49;3.57;;;1.57;;
20287;SDS011;10303;51.960;8.372;2024-02-21T14:56:16;1.80;;;1.47;;